sensor_id;sensor_type;location;lat;lon;timestamp;pressure;altitude;pressure_sealevel;temperature;humidity
77323;BME280;66384;51.052;9.850;2023-03-19T00:01:13;98262.39;;;9.17;68.66
77323;BME280;66384;51.052;9.850;2023-03-19T00:03:42;98267.11;;;9.13;68.44
77323;BME280;66384;51.052;9.850;2023-03-19T00:06:11;98269.66;;;9.05;68.63
77323;BME280;66384;51.052;9.850;2023-03-19T00:08:40;98266.83;;;8.95;68.81
77323;BME280;66384;51.052;9.850;2023-03-19T00:11:11;98268.06;;;8.90;69.13
77323;BME280;66384;51.052;9.850;2023-03-19T00:13:39;98269.93;;;8.89;69.38
77323;BME280;66384;51.052;9.850;2023-03-19T00:16:08;98269.83;;;8.85;69.10
77323;BME280;66384;51.052;9.850;2023-03-19T00:18:38;98272.98;;;8.81;69.19
77323;BME280;66384;51.052;9.850;2023-03-19T00:21:07;98274.27;;;8.78;69.28
77323;BME280;66384;51.052;9.850;2023-03-19T00:23:37;98272.05;;;8.78;69.22
77323;BME280;66384;51.052;9.850;2023-03-19T00:26:06;98274.11;;;8.79;69.26
77323;BME280;66384;51.052;9.850;2023-03-19T00:28:35;98273.23;;;8.78;69.04
77323;BME280;66384;51.052;9.850;2023-03-19T00:31:09;98271.94;;;8.74;69.11
77323;BME280;66384;51.052;9.850;2023-03-19T00:33:39;98277.31;;;8.69;69.05
77323;BME280;66384;51.052;9.850;2023-03-19T00:36:10;98280.73;;;8.69;69.02
77323;BME280;66384;51.052;9.850;2023-03-19T00:38:39;98282.10;;;8.69;68.97
77323;BME280;66384;51.052;9.850;2023-03-19T00:41:09;98279.17;;;8.69;68.98
77323;BME280;66384;51.052;9.850;2023-03-19T00:43:38;98280.73;;;8.69;69.38
77323;BME280;66384;51.052;9.850;2023-03-19T00:46:08;98282.45;;;8.70;69.41
77323;BME280;66384;51.052;9.850;2023-03-19T00:48:37;98279.74;;;8.71;69.31
77323;BME280;66384;51.052;9.850;2023-03-19T00:51:08;98283.54;;;8.72;69.13
77323;BME280;66384;51.052;9.850;2023-03-19T00:53:39;98282.68;;;8.72;69.40
77323;BME280;66384;51.052;9.850;2023-03-19T00:56:11;98294.02;;;8.73;69.32
77323;BME280;66384;51.052;9.850;2023-03-19T00:58:40;98294.19;;;8.73;69.12
77323;BME280;66384;51.052;9.850;2023-03-19T01:01:11;98294.86;;;8.73;69.10
77323;BME280;66384;51.052;9.850;2023-03-19T01:03:39;98283.85;;;8.71;69.02
77323;BME280;66384;51.052;9.850;2023-03-19T01:06:08;98284.13;;;8.69;69.35
77323;BME280;66384;51.052;9.850;2023-03-19T01:08:38;98278.50;;;8.69;69.35
77323;BME280;66384;51.052;9.850;2023-03-19T01:11:09;98282.79;;;8.69;69.16
77323;BME280;66384;51.052;9.850;2023-03-19T01:13:39;98273.95;;;8.66;69.16
77323;BME280;66384;51.052;9.850;2023-03-19T01:16:09;98272.64;;;8.62;69.55
77323;BME280;66384;51.052;9.850;2023-03-19T01:18:38;98269.71;;;8.61;69.76
77323;BME280;66384;51.052;9.850;2023-03-19T01:21:08;98270.37;;;8.60;70.11
77323;BME280;66384;51.052;9.850;2023-03-19T01:23:37;98271.90;;;8.59;70.14
77323;BME280;66384;51.052;9.850;2023-03-19T01:26:06;98277.95;;;8.61;70.24
77323;BME280;66384;51.052;9.850;2023-03-19T01:28:36;98281.08;;;8.63;70.44
77323;BME280;66384;51.052;9.850;2023-03-19T01:31:08;98285.23;;;8.64;70.57
77323;BME280;66384;51.052;9.850;2023-03-19T01:33:37;98284.89;;;8.64;70.34
77323;BME280;66384;51.052;9.850;2023-03-19T01:36:08;98292.98;;;8.66;70.52
77323;BME280;66384;51.052;9.850;2023-03-19T01:38:38;98287.16;;;8.66;70.57
77323;BME280;66384;51.052;9.850;2023-03-19T01:41:07;98280.81;;;8.66;70.54
77323;BME280;66384;51.052;9.850;2023-03-19T01:43:36;98277.02;;;8.65;70.82
77323;BME280;66384;51.052;9.850;2023-03-19T01:46:10;98269.33;;;8.66;70.70
77323;BME280;66384;51.052;9.850;2023-03-19T01:48:45;98272.25;;;8.66;70.64
77323;BME280;66384;51.052;9.850;2023-03-19T01:51:17;98269.33;;;8.66;70.88
77323;BME280;66384;51.052;9.850;2023-03-19T01:53:50;98273.15;;;8.68;70.80
77323;BME280;66384;51.052;9.850;2023-03-19T01:56:23;98273.84;;;8.69;70.78
77323;BME280;66384;51.052;9.850;2023-03-19T01:58:56;98273.02;;;8.70;70.87
77323;BME280;66384;51.052;9.850;2023-03-19T02:01:37;98268.42;;;8.71;70.67
77323;BME280;66384;51.052;9.850;2023-03-19T02:04:09;98265.86;;;8.71;70.98
77323;BME280;66384;51.052;9.850;2023-03-19T02:06:39;98263.79;;;8.70;70.73
77323;BME280;66384;51.052;9.850;2023-03-19T02:09:10;98263.80;;;8.71;70.94
77323;BME280;66384;51.052;9.850;2023-03-19T02:11:39;98268.44;;;8.71;70.90
77323;BME280;66384;51.052;9.850;2023-03-19T02:14:09;98273.04;;;8.70;70.99
77323;BME280;66384;51.052;9.850;2023-03-19T02:16:40;98273.30;;;8.67;70.76
77323;BME280;66384;51.052;9.850;2023-03-19T02:19:12;98274.10;;;8.65;70.95
77323;BME280;66384;51.052;9.850;2023-03-19T02:21:44;98279.35;;;8.62;70.89
77323;BME280;66384;51.052;9.850;2023-03-19T02:24:16;98278.10;;;8.60;70.84
77323;BME280;66384;51.052;9.850;2023-03-19T02:26:49;98272.41;;;8.59;70.81
77323;BME280;66384;51.052;9.850;2023-03-19T02:29:18;98265.86;;;8.58;70.94
77323;BME280;66384;51.052;9.850;2023-03-19T02:31:47;98265.69;;;8.58;70.90
77323;BME280;66384;51.052;9.850;2023-03-19T02:34:38;98260.34;;;8.57;71.03
77323;BME280;66384;51.052;9.850;2023-03-19T02:37:11;98262.44;;;8.58;71.00
77323;BME280;66384;51.052;9.850;2023-03-19T02:39:50;98261.39;;;8.58;70.97
77323;BME280;66384;51.052;9.850;2023-03-19T02:42:24;98262.20;;;8.55;70.62
77323;BME280;66384;51.052;9.850;2023-03-19T02:44:55;98264.02;;;8.54;70.88
77323;BME280;66384;51.052;9.850;2023-03-19T02:47:25;98263.63;;;8.52;70.65
77323;BME280;66384;51.052;9.850;2023-03-19T02:49:55;98268.88;;;8.49;70.86
77323;BME280;66384;51.052;9.850;2023-03-19T02:52:25;98266.59;;;8.47;70.54
77323;BME280;66384;51.052;9.850;2023-03-19T02:54:54;98271.73;;;8.47;70.36
77323;BME280;66384;51.052;9.850;2023-03-19T02:57:24;98276.87;;;8.47;70.44
77323;BME280;66384;51.052;9.850;2023-03-19T02:59:53;98275.38;;;8.49;70.62
77323;BME280;66384;51.052;9.850;2023-03-19T03:02:22;98276.26;;;8.49;70.54
77323;BME280;66384;51.052;9.850;2023-03-19T03:04:52;98276.06;;;8.49;70.40
77323;BME280;66384;51.052;9.850;2023-03-19T03:07:21;98273.48;;;8.48;70.57
77323;BME280;66384;51.052;9.850;2023-03-19T03:09:50;98273.50;;;8.49;70.46
77323;BME280;66384;51.052;9.850;2023-03-19T03:12:20;98274.99;;;8.47;70.36
77323;BME280;66384;51.052;9.850;2023-03-19T03:14:49;98274.30;;;8.48;70.43
77323;BME280;66384;51.052;9.850;2023-03-19T03:17:19;98275.40;;;8.50;70.40
77323;BME280;66384;51.052;9.850;2023-03-19T03:19:48;98272.54;;;8.52;70.30
77323;BME280;66384;51.052;9.850;2023-03-19T03:22:17;98272.41;;;8.53;70.35
77323;BME280;66384;51.052;9.850;2023-03-19T03:24:47;98273.84;;;8.55;70.39
77323;BME280;66384;51.052;9.850;2023-03-19T03:27:16;98274.20;;;8.56;70.65
77323;BME280;66384;51.052;9.850;2023-03-19T03:29:45;98276.09;;;8.56;70.43
77323;BME280;66384;51.052;9.850;2023-03-19T03:32:15;98279.67;;;8.55;70.57
77323;BME280;66384;51.052;9.850;2023-03-19T03:34:44;98288.89;;;8.54;70.57
77323;BME280;66384;51.052;9.850;2023-03-19T03:37:14;98284.55;;;8.52;70.52
77323;BME280;66384;51.052;9.850;2023-03-19T03:39:44;98288.98;;;8.52;70.73
77323;BME280;66384;51.052;9.850;2023-03-19T03:42:13;98293.77;;;8.50;70.70
77323;BME280;66384;51.052;9.850;2023-03-19T03:44:42;98293.14;;;8.47;70.77
77323;BME280;66384;51.052;9.850;2023-03-19T03:47:13;98289.10;;;8.43;70.90
77323;BME280;66384;51.052;9.850;2023-03-19T03:49:43;98292.66;;;8.42;70.89
77323;BME280;66384;51.052;9.850;2023-03-19T03:52:12;98291.80;;;8.41;71.22
77323;BME280;66384;51.052;9.850;2023-03-19T03:54:41;98286.84;;;8.42;71.37
77323;BME280;66384;51.052;9.850;2023-03-19T03:57:10;98287.73;;;8.43;71.32
77323;BME280;66384;51.052;9.850;2023-03-19T03:59:40;98289.27;;;8.43;71.51
77323;BME280;66384;51.052;9.850;2023-03-19T04:02:09;98289.14;;;8.45;71.40
77323;BME280;66384;51.052;9.850;2023-03-19T04:04:38;98287.48;;;8.46;71.55
77323;BME280;66384;51.052;9.850;2023-03-19T04:07:08;98287.77;;;8.45;71.56
77323;BME280;66384;51.052;9.850;2023-03-19T04:09:38;98282.45;;;8.44;71.70
77323;BME280;66384;51.052;9.850;2023-03-19T04:12:07;98284.13;;;8.43;71.90
77323;BME280;66384;51.052;9.850;2023-03-19T04:14:36;98294.55;;;8.42;71.92
77323;BME280;66384;51.052;9.850;2023-03-19T04:17:06;98295.38;;;8.41;71.96
77323;BME280;66384;51.052;9.850;2023-03-19T04:19:35;98293.46;;;8.40;71.97
77323;BME280;66384;51.052;9.850;2023-03-19T04:22:05;98294.80;;;8.39;72.02
77323;BME280;66384;51.052;9.850;2023-03-19T04:24:35;98287.22;;;8.38;72.07
77323;BME280;66384;51.052;9.850;2023-03-19T04:27:05;98291.66;;;8.38;72.03
77323;BME280;66384;51.052;9.850;2023-03-19T04:29:34;98288.73;;;8.37;72.31
77323;BME280;66384;51.052;9.850;2023-03-19T04:32:05;98287.33;;;8.36;72.33
77323;BME280;66384;51.052;9.850;2023-03-19T04:34:34;98292.79;;;8.36;72.25
77323;BME280;66384;51.052;9.850;2023-03-19T04:37:04;98294.14;;;8.35;72.21
77323;BME280;66384;51.052;9.850;2023-03-19T04:39:33;98302.23;;;8.30;72.01
77323;BME280;66384;51.052;9.850;2023-03-19T04:42:03;98302.29;;;8.27;71.99
77323;BME280;66384;51.052;9.850;2023-03-19T04:44:33;98305.61;;;8.23;72.29
77323;BME280;66384;51.052;9.850;2023-03-19T04:47:02;98307.04;;;8.19;72.41
77323;BME280;66384;51.052;9.850;2023-03-19T04:49:31;98310.45;;;8.18;72.49
77323;BME280;66384;51.052;9.850;2023-03-19T04:52:00;98306.33;;;8.17;72.51
77323;BME280;66384;51.052;9.850;2023-03-19T04:54:30;98305.33;;;8.18;72.56
77323;BME280;66384;51.052;9.850;2023-03-19T04:56:59;98304.84;;;8.19;72.69
77323;BME280;66384;51.052;9.850;2023-03-19T04:59:29;98304.14;;;8.19;72.64
77323;BME280;66384;51.052;9.850;2023-03-19T05:01:58;98305.00;;;8.19;72.75
77323;BME280;66384;51.052;9.850;2023-03-19T05:04:28;98307.73;;;8.19;72.90
77323;BME280;66384;51.052;9.850;2023-03-19T05:06:57;98304.64;;;8.19;72.93
77323;BME280;66384;51.052;9.850;2023-03-19T05:09:26;98307.57;;;8.19;72.86
77323;BME280;66384;51.052;9.850;2023-03-19T05:11:57;98312.43;;;8.21;73.03
77323;BME280;66384;51.052;9.850;2023-03-19T05:14:27;98323.31;;;8.25;73.08
77323;BME280;66384;51.052;9.850;2023-03-19T05:16:56;98324.95;;;8.28;73.29
77323;BME280;66384;51.052;9.850;2023-03-19T05:19:26;98323.29;;;8.30;73.30
77323;BME280;66384;51.052;9.850;2023-03-19T05:21:55;98319.53;;;8.30;73.19
77323;BME280;66384;51.052;9.850;2023-03-19T05:24:25;98314.05;;;8.30;73.16
77323;BME280;66384;51.052;9.850;2023-03-19T05:26:54;98313.41;;;8.32;73.25
77323;BME280;66384;51.052;9.850;2023-03-19T05:29:24;98315.48;;;8.32;73.30
77323;BME280;66384;51.052;9.850;2023-03-19T05:31:54;98318.59;;;8.33;73.37
77323;BME280;66384;51.052;9.850;2023-03-19T05:34:23;98319.02;;;8.36;73.28
77323;BME280;66384;51.052;9.850;2023-03-19T05:36:52;98318.75;;;8.38;73.44
77323;BME280;66384;51.052;9.850;2023-03-19T05:39:21;98317.76;;;8.39;72.98
77323;BME280;66384;51.052;9.850;2023-03-19T05:41:51;98322.41;;;8.39;73.32
77323;BME280;66384;51.052;9.850;2023-03-19T05:44:21;98321.08;;;8.41;73.19
77323;BME280;66384;51.052;9.850;2023-03-19T05:46:50;98323.14;;;8.41;73.34
77323;BME280;66384;51.052;9.850;2023-03-19T05:49:19;98324.89;;;8.42;73.37
77323;BME280;66384;51.052;9.850;2023-03-19T05:51:49;98327.84;;;8.43;73.17
77323;BME280;66384;51.052;9.850;2023-03-19T05:54:18;98327.02;;;8.45;73.41
77323;BME280;66384;51.052;9.850;2023-03-19T05:56:47;98323.75;;;8.45;73.39
77323;BME280;66384;51.052;9.850;2023-03-19T05:59:16;98326.92;;;8.47;73.30
77323;BME280;66384;51.052;9.850;2023-03-19T06:01:46;98333.60;;;8.48;73.24
77323;BME280;66384;51.052;9.850;2023-03-19T06:04:15;98342.53;;;8.48;73.23
77323;BME280;66384;51.052;9.850;2023-03-19T06:06:44;98343.48;;;8.46;73.57
77323;BME280;66384;51.052;9.850;2023-03-19T06:09:14;98349.25;;;8.43;73.36
77323;BME280;66384;51.052;9.850;2023-03-19T06:11:43;98350.42;;;8.42;73.45
77323;BME280;66384;51.052;9.850;2023-03-19T06:14:12;98348.39;;;8.43;73.43
77323;BME280;66384;51.052;9.850;2023-03-19T06:16:42;98351.00;;;8.44;73.54
77323;BME280;66384;51.052;9.850;2023-03-19T06:19:11;98357.23;;;8.46;73.31
77323;BME280;66384;51.052;9.850;2023-03-19T06:21:40;98359.50;;;8.48;73.16
77323;BME280;66384;51.052;9.850;2023-03-19T06:24:10;98362.27;;;8.49;73.41
77323;BME280;66384;51.052;9.850;2023-03-19T06:26:39;98361.63;;;8.51;73.21
77323;BME280;66384;51.052;9.850;2023-03-19T06:29:08;98366.46;;;8.52;73.39
77323;BME280;66384;51.052;9.850;2023-03-19T06:31:38;98365.64;;;8.53;73.47
77323;BME280;66384;51.052;9.850;2023-03-19T06:34:08;98368.60;;;8.54;73.44
77323;BME280;66384;51.052;9.850;2023-03-19T06:36:38;98372.78;;;8.57;73.59
77323;BME280;66384;51.052;9.850;2023-03-19T06:39:07;98366.17;;;8.59;73.44
77323;BME280;66384;51.052;9.850;2023-03-19T06:41:37;98367.65;;;8.63;73.49
77323;BME280;66384;51.052;9.850;2023-03-19T06:44:06;98369.30;;;8.67;73.55
77323;BME280;66384;51.052;9.850;2023-03-19T06:46:35;98373.52;;;8.71;73.23
77323;BME280;66384;51.052;9.850;2023-03-19T06:49:05;98377.55;;;8.74;73.30
77323;BME280;66384;51.052;9.850;2023-03-19T06:51:34;98380.88;;;8.76;73.26
77323;BME280;66384;51.052;9.850;2023-03-19T06:54:03;98375.47;;;8.80;73.49
77323;BME280;66384;51.052;9.850;2023-03-19T06:56:33;98374.14;;;8.81;73.62
77323;BME280;66384;51.052;9.850;2023-03-19T06:59:02;98375.63;;;8.85;73.44
77323;BME280;66384;51.052;9.850;2023-03-19T07:01:32;98374.54;;;8.88;73.31
77323;BME280;66384;51.052;9.850;2023-03-19T07:04:01;98377.89;;;8.93;73.41
77323;BME280;66384;51.052;9.850;2023-03-19T07:06:30;98381.61;;;8.97;73.32
77323;BME280;66384;51.052;9.850;2023-03-19T07:09:00;98384.13;;;9.00;73.44
77323;BME280;66384;51.052;9.850;2023-03-19T07:11:30;98387.66;;;9.04;73.40
77323;BME280;66384;51.052;9.850;2023-03-19T07:13:59;98392.73;;;9.08;73.14
77323;BME280;66384;51.052;9.850;2023-03-19T07:16:29;98392.11;;;9.10;73.30
77323;BME280;66384;51.052;9.850;2023-03-19T07:18:58;98393.05;;;9.13;73.18
77323;BME280;66384;51.052;9.850;2023-03-19T07:21:28;98392.42;;;9.17;73.53
77323;BME280;66384;51.052;9.850;2023-03-19T07:23:57;98393.05;;;9.20;73.42
77323;BME280;66384;51.052;9.850;2023-03-19T07:26:26;98391.08;;;9.23;73.37
77323;BME280;66384;51.052;9.850;2023-03-19T07:28:55;98395.95;;;9.26;73.61
77323;BME280;66384;51.052;9.850;2023-03-19T07:31:25;98396.90;;;9.29;73.36
77323;BME280;66384;51.052;9.850;2023-03-19T07:33:54;98397.48;;;9.32;73.52
77323;BME280;66384;51.052;9.850;2023-03-19T07:36:23;98400.84;;;9.35;73.53
77323;BME280;66384;51.052;9.850;2023-03-19T07:38:53;98401.08;;;9.38;73.53
77323;BME280;66384;51.052;9.850;2023-03-19T07:41:22;98403.54;;;9.40;73.36
77323;BME280;66384;51.052;9.850;2023-03-19T07:43:51;98413.44;;;9.45;73.45
77323;BME280;66384;51.052;9.850;2023-03-19T07:46:20;98415.27;;;9.49;73.48
77323;BME280;66384;51.052;9.850;2023-03-19T07:48:50;98414.38;;;9.54;73.12
77323;BME280;66384;51.052;9.850;2023-03-19T07:51:19;98415.02;;;9.60;73.35
77323;BME280;66384;51.052;9.850;2023-03-19T07:53:48;98413.37;;;9.62;73.27
77323;BME280;66384;51.052;9.850;2023-03-19T07:56:17;98411.40;;;9.66;73.26
77323;BME280;66384;51.052;9.850;2023-03-19T07:58:47;98408.75;;;9.70;73.46
77323;BME280;66384;51.052;9.850;2023-03-19T08:01:16;98405.56;;;9.73;73.14
77323;BME280;66384;51.052;9.850;2023-03-19T08:03:45;98407.21;;;9.77;72.14
77323;BME280;66384;51.052;9.850;2023-03-19T08:06:15;98408.59;;;9.84;71.23
77323;BME280;66384;51.052;9.850;2023-03-19T08:08:44;98408.27;;;9.92;70.89
77323;BME280;66384;51.052;9.850;2023-03-19T08:11:14;98407.27;;;10.00;70.67
77323;BME280;66384;51.052;9.850;2023-03-19T08:13:43;98407.45;;;10.09;70.36
77323;BME280;66384;51.052;9.850;2023-03-19T08:16:12;98409.00;;;10.16;70.24
77323;BME280;66384;51.052;9.850;2023-03-19T08:18:41;98413.15;;;10.24;70.09
77323;BME280;66384;51.052;9.850;2023-03-19T08:21:11;98415.08;;;10.32;69.79
77323;BME280;66384;51.052;9.850;2023-03-19T08:23:40;98413.70;;;10.40;69.35
77323;BME280;66384;51.052;9.850;2023-03-19T08:26:09;98415.74;;;10.47;69.08
77323;BME280;66384;51.052;9.850;2023-03-19T08:28:38;98419.70;;;10.54;68.74
77323;BME280;66384;51.052;9.850;2023-03-19T08:31:09;98422.94;;;10.61;68.29
77323;BME280;66384;51.052;9.850;2023-03-19T08:33:39;98427.75;;;10.69;68.10
77323;BME280;66384;51.052;9.850;2023-03-19T08:36:10;98423.42;;;10.77;67.93
77323;BME280;66384;51.052;9.850;2023-03-19T08:38:40;98427.04;;;10.84;67.63
77323;BME280;66384;51.052;9.850;2023-03-19T08:41:10;98429.09;;;10.91;66.97
77323;BME280;66384;51.052;9.850;2023-03-19T08:43:39;98434.73;;;10.99;66.32
77323;BME280;66384;51.052;9.850;2023-03-19T08:46:08;98426.60;;;11.05;66.01
77323;BME280;66384;51.052;9.850;2023-03-19T08:48:38;98430.14;;;11.10;65.70
77323;BME280;66384;51.052;9.850;2023-03-19T08:51:07;98431.46;;;11.17;65.61
77323;BME280;66384;51.052;9.850;2023-03-19T08:53:38;98428.32;;;11.23;65.49
77323;BME280;66384;51.052;9.850;2023-03-19T08:56:08;98429.17;;;11.32;65.48
77323;BME280;66384;51.052;9.850;2023-03-19T08:58:37;98424.02;;;11.41;65.35
77323;BME280;66384;51.052;9.850;2023-03-19T09:01:10;98427.29;;;11.51;64.95
77323;BME280;66384;51.052;9.850;2023-03-19T09:03:42;98427.81;;;11.61;64.94
77323;BME280;66384;51.052;9.850;2023-03-19T09:06:13;98430.92;;;11.71;64.39
77323;BME280;66384;51.052;9.850;2023-03-19T09:08:41;98426.24;;;11.80;64.10
77323;BME280;66384;51.052;9.850;2023-03-19T09:11:11;98429.20;;;11.89;64.15
77323;BME280;66384;51.052;9.850;2023-03-19T09:13:41;98432.29;;;11.99;63.88
77323;BME280;66384;51.052;9.850;2023-03-19T09:16:10;98433.80;;;12.07;63.69
77323;BME280;66384;51.052;9.850;2023-03-19T09:18:39;98430.32;;;12.17;63.84
77323;BME280;66384;51.052;9.850;2023-03-19T09:21:09;98433.75;;;12.26;63.44
77323;BME280;66384;51.052;9.850;2023-03-19T09:23:38;98430.95;;;12.36;63.20
77323;BME280;66384;51.052;9.850;2023-03-19T09:26:08;98434.00;;;12.44;63.07
77323;BME280;66384;51.052;9.850;2023-03-19T09:28:37;98433.80;;;12.53;63.29
77323;BME280;66384;51.052;9.850;2023-03-19T09:31:09;98436.52;;;12.63;62.54
77323;BME280;66384;51.052;9.850;2023-03-19T09:33:38;98435.44;;;12.72;61.94
77323;BME280;66384;51.052;9.850;2023-03-19T09:36:09;98435.72;;;12.81;61.44
77323;BME280;66384;51.052;9.850;2023-03-19T09:38:38;98436.50;;;12.88;61.13
77323;BME280;66384;51.052;9.850;2023-03-19T09:41:12;98434.34;;;12.94;60.63
77323;BME280;66384;51.052;9.850;2023-03-19T09:43:56;98430.27;;;13.00;60.02
77323;BME280;66384;51.052;9.850;2023-03-19T09:46:31;98426.34;;;13.04;59.40
77323;BME280;66384;51.052;9.850;2023-03-19T09:49:08;98428.45;;;13.08;59.25
77323;BME280;66384;51.052;9.850;2023-03-19T09:51:45;98437.67;;;13.13;59.39
77323;BME280;66384;51.052;9.850;2023-03-19T09:54:28;98440.70;;;13.21;59.47
77323;BME280;66384;51.052;9.850;2023-03-19T09:56:58;98444.48;;;13.30;59.09
77323;BME280;66384;51.052;9.850;2023-03-19T09:59:29;98442.08;;;13.33;58.24
77323;BME280;66384;51.052;9.850;2023-03-19T10:02:23;98442.13;;;13.37;58.61
77323;BME280;66384;51.052;9.850;2023-03-19T10:05:02;98445.64;;;13.43;58.84
77323;BME280;66384;51.052;9.850;2023-03-19T10:07:53;98446.05;;;13.50;58.48
77323;BME280;66384;51.052;9.850;2023-03-19T10:10:46;98449.40;;;13.55;58.12
77323;BME280;66384;51.052;9.850;2023-03-19T10:13:24;98453.23;;;13.58;57.68
77323;BME280;66384;51.052;9.850;2023-03-19T10:16:00;98454.64;;;13.62;57.24
77323;BME280;66384;51.052;9.850;2023-03-19T10:18:32;98455.52;;;13.63;57.22
77323;BME280;66384;51.052;9.850;2023-03-19T10:21:05;98459.22;;;13.69;57.50
77323;BME280;66384;51.052;9.850;2023-03-19T10:23:40;98458.41;;;13.76;57.24
77323;BME280;66384;51.052;9.850;2023-03-19T10:26:14;98458.65;;;13.83;57.05
77323;BME280;66384;51.052;9.850;2023-03-19T10:28:54;98453.20;;;13.91;57.49
77323;BME280;66384;51.052;9.850;2023-03-19T10:31:29;98452.63;;;14.04;57.28
77323;BME280;66384;51.052;9.850;2023-03-19T10:34:17;98452.89;;;14.16;57.37
77323;BME280;66384;51.052;9.850;2023-03-19T10:36:50;98456.63;;;14.29;57.11
77323;BME280;66384;51.052;9.850;2023-03-19T10:39:25;98455.30;;;14.37;56.76
77323;BME280;66384;51.052;9.850;2023-03-19T10:42:06;98447.73;;;14.44;56.20
77323;BME280;66384;51.052;9.850;2023-03-19T10:44:40;98449.17;;;14.51;55.70
77323;BME280;66384;51.052;9.850;2023-03-19T10:47:13;98454.75;;;14.54;55.74
77323;BME280;66384;51.052;9.850;2023-03-19T10:49:42;98456.33;;;14.57;54.91
77323;BME280;66384;51.052;9.850;2023-03-19T10:52:23;98452.52;;;14.56;54.68
77323;BME280;66384;51.052;9.850;2023-03-19T10:55:01;98454.45;;;14.59;54.98
77323;BME280;66384;51.052;9.850;2023-03-19T10:57:33;98451.88;;;14.63;54.86
77323;BME280;66384;51.052;9.850;2023-03-19T11:00:13;98447.76;;;14.72;55.22
77323;BME280;66384;51.052;9.850;2023-03-19T11:02:49;98447.66;;;14.86;55.22
77323;BME280;66384;51.052;9.850;2023-03-19T11:05:25;98448.95;;;15.00;54.61
77323;BME280;66384;51.052;9.850;2023-03-19T11:07:59;98449.17;;;15.12;54.07
77323;BME280;66384;51.052;9.850;2023-03-19T11:10:31;98444.19;;;15.23;54.30
77323;BME280;66384;51.052;9.850;2023-03-19T11:13:11;98443.72;;;15.38;54.07
77323;BME280;66384;51.052;9.850;2023-03-19T11:15:47;98443.60;;;15.59;54.75
77323;BME280;66384;51.052;9.850;2023-03-19T11:18:20;98446.09;;;15.75;53.83
77323;BME280;66384;51.052;9.850;2023-03-19T11:20:54;98442.63;;;15.86;53.31
77323;BME280;66384;51.052;9.850;2023-03-19T11:23:28;98447.84;;;15.91;52.61
77323;BME280;66384;51.052;9.850;2023-03-19T11:26:01;98444.72;;;15.96;52.44
77323;BME280;66384;51.052;9.850;2023-03-19T11:28:30;98442.98;;;16.02;52.58
77323;BME280;66384;51.052;9.850;2023-03-19T11:31:04;98444.89;;;16.09;52.25
77323;BME280;66384;51.052;9.850;2023-03-19T11:33:50;98442.46;;;16.17;51.83
77323;BME280;66384;51.052;9.850;2023-03-19T11:36:26;98437.42;;;16.24;51.12
77323;BME280;66384;51.052;9.850;2023-03-19T11:39:05;98437.25;;;16.25;50.88
77323;BME280;66384;51.052;9.850;2023-03-19T11:41:51;98432.58;;;16.25;51.53
77323;BME280;66384;51.052;9.850;2023-03-19T11:44:27;98431.19;;;16.26;51.06
77323;BME280;66384;51.052;9.850;2023-03-19T11:47:01;98426.48;;;16.26;51.04
77323;BME280;66384;51.052;9.850;2023-03-19T11:49:43;98426.67;;;16.24;50.74
77323;BME280;66384;51.052;9.850;2023-03-19T11:52:21;98430.15;;;16.21;51.08
77323;BME280;66384;51.052;9.850;2023-03-19T11:55:03;98422.34;;;16.17;51.24
77323;BME280;66384;51.052;9.850;2023-03-19T11:57:54;98415.23;;;16.12;51.02
77323;BME280;66384;51.052;9.850;2023-03-19T12:00:31;98414.52;;;16.08;51.24
77323;BME280;66384;51.052;9.850;2023-03-19T12:06:04;98411.59;;;16.00;51.10
77323;BME280;66384;51.052;9.850;2023-03-19T12:08:41;98411.06;;;15.90;51.15
77323;BME280;66384;51.052;9.850;2023-03-19T12:11:19;98413.13;;;15.79;51.18
77323;BME280;66384;51.052;9.850;2023-03-19T12:14:16;98414.85;;;15.68;51.54
77323;BME280;66384;51.052;9.850;2023-03-19T12:17:05;98412.56;;;15.58;51.78
77323;BME280;66384;51.052;9.850;2023-03-19T12:19:47;98415.50;;;15.52;52.09
77323;BME280;66384;51.052;9.850;2023-03-19T12:22:29;98412.20;;;15.47;51.92
77323;BME280;66384;51.052;9.850;2023-03-19T12:25:21;98412.53;;;15.41;51.52
77323;BME280;66384;51.052;9.850;2023-03-19T12:27:55;98407.66;;;15.37;52.63
77323;BME280;66384;51.052;9.850;2023-03-19T12:30:35;98406.46;;;15.40;52.72
77323;BME280;66384;51.052;9.850;2023-03-19T12:33:30;98405.77;;;15.44;52.74
77323;BME280;66384;51.052;9.850;2023-03-19T12:36:07;98403.17;;;15.45;52.41
77323;BME280;66384;51.052;9.850;2023-03-19T12:38:40;98399.52;;;15.42;52.83
77323;BME280;66384;51.052;9.850;2023-03-19T12:41:16;98396.06;;;15.41;53.18
77323;BME280;66384;51.052;9.850;2023-03-19T12:43:52;98392.08;;;15.39;53.26
77323;BME280;66384;51.052;9.850;2023-03-19T12:46:29;98396.23;;;15.35;53.35
77323;BME280;66384;51.052;9.850;2023-03-19T12:49:04;98398.98;;;15.29;53.45
77323;BME280;66384;51.052;9.850;2023-03-19T12:51:37;98398.80;;;15.21;53.89
77323;BME280;66384;51.052;9.850;2023-03-19T12:54:13;98391.84;;;15.09;54.34
77323;BME280;66384;51.052;9.850;2023-03-19T12:56:50;98392.83;;;14.96;55.17
77323;BME280;66384;51.052;9.850;2023-03-19T12:59:26;98394.50;;;14.84;55.62
77323;BME280;66384;51.052;9.850;2023-03-19T13:02:00;98397.73;;;14.71;55.75
77323;BME280;66384;51.052;9.850;2023-03-19T13:04:33;98402.02;;;14.62;56.04
77323;BME280;66384;51.052;9.850;2023-03-19T13:07:07;98402.98;;;14.52;56.39
77323;BME280;66384;51.052;9.850;2023-03-19T13:09:43;98401.86;;;14.42;56.45
77323;BME280;66384;51.052;9.850;2023-03-19T13:12:19;98399.91;;;14.34;56.56
77323;BME280;66384;51.052;9.850;2023-03-19T13:14:56;98400.05;;;14.28;56.57
77323;BME280;66384;51.052;9.850;2023-03-19T13:17:32;98393.77;;;14.21;56.63
77323;BME280;66384;51.052;9.850;2023-03-19T13:20:13;98392.52;;;14.15;57.04
77323;BME280;66384;51.052;9.850;2023-03-19T13:22:52;98396.11;;;14.08;57.29
77323;BME280;66384;51.052;9.850;2023-03-19T13:25:26;98400.03;;;14.01;57.53
77323;BME280;66384;51.052;9.850;2023-03-19T13:27:59;98400.67;;;13.95;57.73
77323;BME280;66384;51.052;9.850;2023-03-19T13:30:29;98397.20;;;13.93;57.95
77323;BME280;66384;51.052;9.850;2023-03-19T13:33:04;98395.48;;;13.93;58.05
77323;BME280;66384;51.052;9.850;2023-03-19T13:35:38;98396.18;;;13.94;58.46